METAR Data
IDs: Format: Raw Decoded Include TAF

Data at: 2118 UTC 19 May 2019

KAXA 192115Z AUTO 32011KT 10SM OVC014 09/08 A2980 RMK AO2 PWINO
KAXA 192055Z AUTO 33012KT 9SM BKN015 OVC021 09/08 A2979 RMK AO2 PWINO
KAXA 192035Z AUTO 32011G16KT 10SM OVC014 09/08 A2978 RMK AO2 PWINO
KAXA 192015Z AUTO 32011G17KT 10SM OVC013 09/08 A2977 RMK AO2 PWINO
KAXA 191955Z AUTO 32013KT 10SM OVC014 09/08 A2976 RMK AO2 PWINO
KAXA 191935Z AUTO 32008G14KT 10SM OVC013 09/08 A2975 RMK AO2 PWINO
KAXA 191915Z AUTO 31012KT 10SM OVC014 09/08 A2975 RMK AO2 PWINO
KAXA 191855Z AUTO 33011KT 10SM OVC014 09/08 A2974 RMK AO2 PWINO
KAXA 191835Z AUTO 32010KT 10SM OVC013 09/08 A2973 RMK AO2 PWINO
KAXA 191815Z AUTO 32011KT 10SM BKN013 OVC018 10/08 A2972 RMK AO2 PWINO
KAXA 191755Z AUTO 36008G13KT 10SM BKN013 OVC020 09/09 A2970 RMK AO2 PWINO
KAXA 191735Z AUTO 36011G17KT 10SM OVC014 09/09 A2970 RMK AO2 PWINO
KAXA 191715Z AUTO 35013G18KT 10SM BKN015 OVC022 09/08 A2969 RMK AO2 PWINO
KAXA 191655Z AUTO 35012G20KT 10SM OVC013 09/09 A2968 RMK AO2 PWINO
KAXA 191635Z AUTO 35012G19KT 10SM 09/09 A2968 RMK AO2 PWINO
KAXA 191615Z AUTO 35013G19KT 9SM OVC014 09/09 A2967 RMK AO2 PWINO
KAXA 191555Z AUTO 35010G17KT 2SM BR OVC015 09/08 A2967 RMK AO2 P0002 PWINO
KAXA 191535Z AUTO 33012KT 2SM BR BKN015 BKN021 BKN027 08/08 A2967 RMK AO2 PWINO
KAXA 191515Z AUTO 34010G17KT 2SM -DZ SCT015 SCT027 08/08 A2966 RMK AO2
KAXA 191455Z AUTO 35010KT 1 3/4SM RA BKN013 08/08 A2965 RMK AO2 P0003
KAXA 191435Z AUTO 35009G15KT 1 3/4SM -DZ BKN013 BKN018 08/08 A2963 RMK AO2
KAXA 191415Z AUTO 35012KT 2SM -RA SCT013 SCT018 08/08 A2962 RMK AO2
KAXA 191355Z AUTO 01009G15KT 6SM BR BKN013 08/08 A2962 RMK AO2 P0002 PWINO
KAXA 191335Z AUTO 01012KT 7SM SCT014 SCT040 08/08 A2961 RMK AO2 PWINO
KAXA 191315Z AUTO 01008KT 3SM -DZ FEW006 BKN014 BKN039 08/08 A2961 RMK AO2
KAXA 191255Z AUTO 36009KT 3SM -DZ FEW006 SCT013 BKN029 08/08 A2962 RMK AO2 P0002
KAXA 191235Z AUTO 36011KT 3SM BR BKN012 08/08 A2961 RMK AO2 PWINO
KAXA 191215Z AUTO 36010G18KT 2 1/2SM -DZ SCT012 08/08 A2961 RMK AO2
KAXA 191155Z AUTO 01010G16KT 7SM BKN009 OVC013 08/08 A2959 RMK AO2 P0001 PWINO
KAXA 191135Z AUTO 01013KT 10SM BKN008 OVC015 08/08 A2958 RMK AO2 PWINO
KAXA 191115Z AUTO 02013G21KT 10SM BKN009 BKN014 OVC080 08/08 A2957 RMK AO2
KAXA 191055Z AUTO 01010G19KT 10SM OVC008 09/09 A2957 RMK AO2 P0001 PWINO
KAXA 191035Z AUTO 36012G19KT 8SM -RA OVC007 09/09 A2956 RMK AO2
KAXA 191015Z AUTO 36011G17KT 6SM RA OVC007 09/09 A2956 RMK AO2
KAXA 190955Z AUTO 36013KT 10SM -DZ OVC006 10/09 A2956 RMK AO2 P0001
KAXA 190935Z AUTO 35012G17KT 7SM -RA BKN006 BKN050 OVC060 10/10 A2956 RMK AO2
KAXA 190915Z AUTO 01012KT 10SM SCT006 SCT055 OVC065 10/10 A2955 RMK AO2 PWINO
KAXA 190855Z AUTO 03010KT 7SM -RA FEW005 SCT055 BKN065 10/10 A2955 RMK AO2 P0009
KAXA 190835Z AUTO 02014KT 5SM -DZ BKN005 BKN031 OVC065 11/10 A2956 RMK AO2
KAXA 190815Z AUTO 03012KT 4SM +RA OVC005 11/11 A2956 RMK AO2
KAXA 190755Z AUTO 02010KT 3SM +RA BKN005 BKN016 OVC030 11/11 A2957 RMK AO2 P0009
KAXA 190735Z AUTO 34007KT 3SM RA OVC004 12/12 A2957 RMK AO2
KAXA 190715Z AUTO 33009G15KT 6SM -DZ OVC003 12/12 A2958 RMK AO2
KAXA 190655Z AUTO 35010G16KT 3SM RA BKN003 BKN016 OVC070 12/12 A2956 RMK AO2 P0007
KAXA 190635Z AUTO 35006KT 5SM -DZ SCT003 OVC070 13/13 A2955 RMK AO2
KAXA 190615Z AUTO 35006KT 4SM -RA FEW003 OVC065 13/13 A2956 RMK AO2
KAXA 190555Z AUTO 32008KT 8SM -DZ FEW007 SCT055 OVC065 14/14 A2957 RMK AO2 P0006
KAXA 190535Z AUTO 33008KT 5SM -RA FEW008 OVC055 15/14 A2957 RMK AO2
KAXA 190515Z AUTO 32006KT 4SM RA FEW028 BKN050 OVC055 14/14 A2959 RMK AO2
KAXA 190455Z AUTO 01008G16KT 3SM RA FEW027 BKN037 OVC049 14/14 A2959 RMK AO2 P0006
KAXA 190435Z AUTO 36011KT 2 1/2SM RA FEW027 SCT032 OVC037 15/15 A2960 RMK AO2
KAXA 190415Z AUTO 36008KT 2 1/2SM BR FEW022 BKN029 OVC038 15/15 A2960 RMK AO2 PWINO
KAXA 190355Z AUTO 01008G13KT 2SM -RA SCT022 BKN030 OVC039 15/15 A2959 RMK AO2 P0003
KAXA 190335Z AUTO 36008KT 3SM BR FEW005 SCT030 BKN047 16/15 A2958 RMK AO2 PWINO
KAXA 190315Z AUTO 33007KT 5SM BR SCT005 SCT050 OVC060 17/16 A2959 RMK AO2 PWINO
KAXA 190255Z AUTO 27006G11KT 5SM -DZ FEW038 SCT055 OVC070 16/16 A2959 RMK AO2 P0005
KAXA 190235Z AUTO 27008KT 6SM -DZ FEW026 SCT040 OVC070 17/16 A2959 RMK AO2
KAXA 190215Z AUTO 26010KT 5SM -DZ FEW029 SCT048 OVC070 17/17 A2960 RMK AO2
KAXA 190155Z AUTO 21008KT 3SM -RA FEW014 BKN030 OVC055 17/17 A2960 RMK AO2 P0021
KAXA 190135Z AUTO 22011KT 2SM +RA FEW009 SCT021 OVC026 17/17 A2960 RMK AO2
KAXA 190115Z AUTO 18016KT 7SM -DZ OVC026 19/18 A2959 RMK AO2
KAXA 190055Z AUTO 27007KT 10SM OVC027 20/17 A2958 RMK AO2 PWINO
KAXA 190035Z AUTO 29010KT 10SM BKN030 BKN041 20/17 A2957 RMK AO2 PWINO
KAXA 190015Z AUTO 28012KT 10SM FEW034 SCT043 BKN080 21/17 A2957 RMK AO2 PWINO
KAXA 182355Z AUTO 27008KT 10SM FEW080 22/18 A2957 RMK AO2 PWINO
KAXA 182335Z AUTO 25008KT 10SM CLR 22/18 A2956 RMK AO2 PWINO
KAXA 182315Z AUTO 25009KT 10SM CLR 23/17 A2956 RMK AO2 PWINO
KAXA 182255Z AUTO 25012KT 10SM CLR 23/17 A2956 RMK AO2 PWINO
KAXA 182235Z AUTO 22013G18KT 10SM CLR 24/15 A2956 RMK AO2 PWINO
KAXA 182215Z AUTO 21012G19KT 10SM CLR 25/15 A2957 RMK AO2 PWINO
KAXA 182155Z AUTO 22016KT 10SM CLR 25/15 A2956 RMK AO2 PWINO
KAXA 182135Z AUTO 21012G18KT 10SM CLR 25/15 A2956 RMK AO2 PWINO
KAXA 182115Z AUTO 22011G17KT 10SM CLR 25/16 A2957 RMK AO2 PWINO
KAXA 182055Z AUTO 20013KT 10SM CLR 25/15 A2958 RMK AO2 PWINO
KAXA 182035Z AUTO 20014KT 10SM FEW050 SCT060 25/15 A2959 RMK AO2 PWINO
KAXA 182015Z AUTO 21012G21KT 10SM SCT050 SCT060 25/15 A2958 RMK AO2 PWINO
KAXA 181955Z AUTO 20014KT 10SM FEW050 SCT055 26/15 A2957 RMK AO2 PWINO
KAXA 181935Z AUTO 21006G19KT 10SM SCT055 25/15 A2956 RMK AO2 PWINO
KAXA 181915Z AUTO 20012G20KT 10SM SCT050 BKN060 26/15 A2957 RMK AO2 PWINO
KAXA 181855Z AUTO VRB05G13KT 10SM BKN046 BKN055 25/16 A2957 RMK AO2 PWINO
KAXA 181835Z AUTO 23012KT 10SM SCT044 BKN049 BKN060 25/16 A2956 RMK AO2 PWINO
KAXA 181815Z AUTO 25008G14KT 10SM SCT047 BKN060 24/16 A2956 RMK AO2 PWINO
KAXA 181755Z AUTO 22014KT 10SM FEW039 25/16 A2957 RMK AO2 PWINO
KAXA 181735Z AUTO 21009G14KT 10SM FEW037 24/17 A2956 RMK AO2 PWINO
KAXA 181715Z AUTO 22011KT 10SM FEW029 FEW034 24/17 A2958 RMK AO2 PWINO
KAXA 181655Z AUTO 22008KT 180V240 10SM FEW034 23/19 A2958 RMK AO2 PWINO
KAXA 181635Z AUTO 21007KT 170V230 10SM FEW019 22/19 A2956 RMK AO2 PWINO
KAXA 181615Z AUTO 22008KT 10SM SCT017 21/19 A2956 RMK AO2 PWINO
KAXA 181555Z AUTO 23007KT 9SM BKN015 21/18 A2955 RMK AO2 PWINO
KAXA 181535Z AUTO 19013KT 10SM SCT015 21/19 A2955 RMK AO2 PWINO
KAXA 181515Z AUTO 19007G14KT 9SM FEW013 20/19 A2955 RMK AO2 PWINO
KAXA 181455Z AUTO 16010KT 8SM CLR 18/18 A2955 RMK AO2 PWINO
KAXA 181435Z AUTO 13012G19KT 7SM CLR 17/17 A2954 RMK AO2 PWINO
KAXA 181415Z AUTO 14013KT 6SM BR CLR 17/16 A2955 RMK AO2 PWINO
KAXA 181355Z AUTO 14012G19KT 6SM BR CLR 16/16 A2954 RMK AO2 PWINO
KAXA 181335Z AUTO 12014G23KT 5SM BR CLR 15/15 A2952 RMK AO2 PWINO
KAXA 181315Z AUTO 13015KT 4SM BR CLR 14/14 A2953 RMK AO2 PWINO
KAXA 181255Z AUTO 14015G20KT 4SM BR FEW007 FEW120 13/13 A2957 RMK AO2 PWINO
KAXA 181235Z AUTO 13016G22KT 3SM BR FEW007 FEW120 13/13 A2956 RMK AO2 PWINO
KAXA 181215Z AUTO 13018G23KT 3SM BR SCT110 13/12 A2959 RMK AO2 PWINO
KAXA 181155Z AUTO 13015G21KT 3SM BR FEW036 BKN110 13/12 A2959 RMK AO2 PWINO
KAXA 181135Z AUTO 13015KT 3SM BR SCT036 BKN095 12/12 A2960 RMK AO2 PWINO
KAXA 181115Z AUTO 13016G21KT 3SM BR FEW006 SCT038 BKN095 12/12 A2962 RMK AO2 PWINO
KAXA 181055Z AUTO 13016G22KT 5SM BR FEW006 FEW037 FEW046 12/12 A2961 RMK AO2 PWINO
KAXA 181035Z AUTO 13015G21KT 6SM BR FEW046 SCT095 12/12 A2960 RMK AO2 PWINO
KAXA 181015Z AUTO 13015G23KT 6SM BR FEW075 BKN095 BKN120 12/12 A2960 RMK AO2 PWINO
KAXA 180955Z AUTO 12017G25KT 7SM FEW007 BKN075 OVC120 12/12 A2959 RMK AO2 PWINO
KAXA 180935Z AUTO 12016G23KT 7SM SCT007 SCT048 BKN075 12/12 A2960 RMK AO2 PWINO